createdAt,value
2022-09-27T00:01:58.033Z,3.75
2022-09-27T00:04:26.296Z,3.00
2022-09-27T00:06:53.629Z,3.17
2022-09-27T00:09:20.736Z,4.00
2022-09-27T00:11:47.819Z,3.42
2022-09-27T00:14:18.377Z,3.05
2022-09-27T00:16:46.135Z,2.85
2022-09-27T00:19:19.539Z,2.78
2022-09-27T00:21:47.716Z,3.20
2022-09-27T00:24:22.867Z,3.17
2022-09-27T00:26:50.523Z,3.75
2022-09-27T00:29:19.053Z,4.45
2022-09-27T00:31:47.099Z,3.90
2022-09-27T00:34:23.508Z,2.85
2022-09-27T00:36:51.486Z,3.28
2022-09-27T00:39:18.909Z,3.60
2022-09-27T00:41:46.069Z,3.13
2022-09-27T00:44:52.912Z,3.72
2022-09-27T00:47:44.617Z,4.53
2022-09-27T00:50:31.825Z,3.15
2022-09-27T00:53:15.436Z,3.25
2022-09-27T00:55:54.385Z,3.53
2022-09-27T00:58:27.509Z,3.65
2022-09-27T01:00:59.737Z,3.03
2022-09-27T01:03:56.072Z,3.92
2022-09-27T01:06:23.411Z,3.50
2022-09-27T01:08:50.608Z,3.17
2022-09-27T01:11:45.004Z,6.20
2022-09-27T01:14:50.001Z,3.45
2022-09-27T01:17:40.524Z,2.75
2022-09-27T01:20:47.317Z,2.53
2022-09-27T01:23:43.683Z,3.10
2022-09-27T01:26:45.350Z,3.58
2022-09-27T01:29:51.284Z,2.53
2022-09-27T01:32:29.762Z,2.55
2022-09-27T01:35:06.477Z,2.95
2022-09-27T01:38:01.897Z,3.75
2022-09-27T01:40:49.604Z,2.45
2022-09-27T01:43:43.100Z,3.35
2022-09-27T01:46:15.380Z,3.13
2022-09-27T01:48:47.579Z,2.30
2022-09-27T01:51:25.695Z,2.60
2022-09-27T01:53:56.657Z,2.92
2022-09-27T01:56:31.977Z,2.63
2022-09-27T01:59:13.012Z,2.95
2022-09-27T02:01:42.011Z,3.55
2022-09-27T02:04:13.382Z,2.38
2022-09-27T02:06:44.568Z,2.78
2022-09-27T02:09:25.256Z,2.58
2022-09-27T02:11:58.100Z,2.72
2022-09-27T02:14:47.759Z,2.55
2022-09-27T02:17:42.584Z,2.95
2022-09-27T02:20:31.570Z,3.25
2022-09-27T02:23:21.351Z,2.70
2022-09-27T02:25:58.138Z,2.70
2022-09-27T02:28:33.089Z,3.15
2022-09-27T02:31:00.438Z,2.20
2022-09-27T02:33:41.042Z,3.08
2022-09-27T02:36:09.662Z,3.75
2022-09-27T02:38:36.961Z,2.33
2022-09-27T02:41:04.137Z,3.08
2022-09-27T02:43:33.781Z,2.85
2022-09-27T02:46:31.471Z,2.67
2022-09-27T02:49:24.464Z,3.17
2022-09-27T02:52:32.657Z,2.80
2022-09-27T02:55:25.744Z,2.42
2022-09-27T02:58:21.252Z,2.30
2022-09-27T03:01:02.485Z,2.47
2022-09-27T03:04:09.274Z,2.05
2022-09-27T03:06:37.595Z,2.40
2022-09-27T03:09:04.672Z,2.22
2022-09-27T03:11:33.551Z,2.25
2022-09-27T03:14:09.354Z,2.15
2022-09-27T03:16:36.754Z,1.95
2022-09-27T03:19:03.826Z,2.85
2022-09-27T03:21:31.280Z,2.17
2022-09-27T03:23:58.329Z,2.70
2022-09-27T03:26:25.357Z,2.15
2022-09-27T03:28:52.457Z,2.38
2022-09-27T03:31:19.977Z,1.98
2022-09-27T03:33:47.312Z,2.20
2022-09-27T03:36:14.408Z,2.80
2022-09-27T03:38:41.439Z,2.00
2022-09-27T03:41:08.482Z,2.28
2022-09-27T03:43:36.133Z,2.28
2022-09-27T03:46:03.293Z,2.17
2022-09-27T03:48:31.407Z,2.80
2022-09-27T03:50:58.627Z,2.13
2022-09-27T03:53:25.916Z,2.05
2022-09-27T03:55:53.027Z,1.70
2022-09-27T03:58:20.051Z,2.00
2022-09-27T04:00:47.409Z,2.22
2022-09-27T04:03:14.793Z,2.15
2022-09-27T04:05:41.946Z,2.47
2022-09-27T04:08:11.136Z,1.77
2022-09-27T04:10:38.751Z,1.92
2022-09-27T04:13:06.301Z,2.38
2022-09-27T04:15:33.451Z,2.40
2022-09-27T04:18:00.495Z,2.50
2022-09-27T04:20:27.559Z,1.90
2022-09-27T04:22:54.620Z,1.50
2022-09-27T04:25:21.786Z,2.28
2022-09-27T04:27:48.937Z,2.05
2022-09-27T04:30:16.382Z,2.75
2022-09-27T04:32:44.980Z,2.22
2022-09-27T04:35:33.050Z,1.90
2022-09-27T04:38:00.602Z,1.52
2022-09-27T04:40:27.886Z,2.20
2022-09-27T04:42:55.017Z,1.98
2022-09-27T04:45:22.278Z,3.92
2022-09-27T04:47:51.437Z,1.95
2022-09-27T04:50:20.339Z,2.10
2022-09-27T04:52:52.327Z,2.78
2022-09-27T04:55:21.405Z,2.42
2022-09-27T04:57:49.501Z,1.42
2022-09-27T05:00:17.336Z,1.83
2022-09-27T05:02:45.608Z,4.00
2022-09-27T05:05:12.983Z,1.65
2022-09-27T05:07:40.314Z,2.92
2022-09-27T05:10:08.533Z,1.73
2022-09-27T05:12:36.192Z,1.58
2022-09-27T05:15:03.949Z,2.17
2022-09-27T05:17:31.257Z,1.48
2022-09-27T05:19:58.349Z,1.67
2022-09-27T05:22:25.408Z,2.38
2022-09-27T05:24:52.477Z,2.25
2022-09-27T05:27:20.641Z,4.35
2022-09-27T05:29:50.946Z,1.67
2022-09-27T05:34:45.897Z,2.10
2022-09-27T05:37:13.299Z,3.92
2022-09-27T05:39:40.355Z,1.88
2022-09-27T05:42:10.309Z,1.48
2022-09-27T05:44:38.767Z,1.85
2022-09-27T05:47:07.100Z,3.72
2022-09-27T05:49:34.630Z,2.00
2022-09-27T05:52:01.940Z,6.00
2022-09-27T05:54:30.061Z,2.38
2022-09-27T05:57:01.033Z,1.60
2022-09-27T05:59:28.572Z,6.72
2022-09-27T06:01:55.721Z,7.13
2022-09-27T06:04:22.995Z,7.47
2022-09-27T06:06:50.171Z,15.23
2022-09-27T06:09:18.146Z,1.30
2022-09-27T06:11:46.307Z,7.18
2022-09-27T06:14:14.012Z,2.78
2022-09-27T06:16:41.155Z,3.60
2022-09-27T06:19:08.910Z,4.22
2022-09-27T06:21:37.741Z,4.50
2022-09-27T06:24:04.967Z,3.00
2022-09-27T06:26:33.802Z,3.33
2022-09-27T06:29:00.854Z,6.97
2022-09-27T06:31:27.997Z,1.38
2022-09-27T06:33:55.379Z,1.65
2022-09-27T06:36:22.551Z,1.88
2022-09-27T06:38:49.904Z,3.85
2022-09-27T06:41:17.120Z,2.22
2022-09-27T06:43:44.944Z,4.57
2022-09-27T06:46:12.632Z,2.97
2022-09-27T06:48:39.793Z,5.03
2022-09-27T06:51:06.894Z,5.75
2022-09-27T06:53:34.045Z,1.35
2022-09-27T06:56:01.910Z,5.20
2022-09-27T06:58:49.833Z,6.68
2022-09-27T07:01:17.816Z,7.57
2022-09-27T07:03:49.470Z,3.40
2022-09-27T07:06:20.502Z,5.60
2022-09-27T07:08:53.020Z,9.90
2022-09-27T07:11:26.695Z,4.10
2022-09-27T07:13:53.734Z,4.90
2022-09-27T07:16:20.861Z,5.07
2022-09-27T07:18:49.023Z,5.25
2022-09-27T07:21:16.575Z,5.97
2022-09-27T07:23:43.591Z,1.98
2022-09-27T07:26:11.453Z,3.33
2022-09-27T07:28:41.751Z,5.57
2022-09-27T07:33:38.912Z,1.88
2022-09-27T07:36:11.639Z,3.80
2022-09-27T07:38:38.858Z,5.22
2022-09-27T07:41:11.413Z,4.30
2022-09-27T07:43:38.551Z,5.82
2022-09-27T07:46:05.786Z,2.63
2022-09-27T07:48:32.895Z,8.10
2022-09-27T07:51:00.664Z,3.72
2022-09-27T07:53:27.881Z,8.07
2022-09-27T07:55:55.077Z,7.97
2022-09-27T07:58:23.283Z,12.82
2022-09-27T08:00:51.493Z,13.73
2022-09-27T08:03:18.945Z,7.28
2022-09-27T08:05:47.730Z,9.88
2022-09-27T08:08:16.319Z,26.13
2022-09-27T08:10:44.628Z,6.93
2022-09-27T08:13:12.419Z,29.23
2022-09-27T08:15:39.553Z,14.68
2022-09-27T08:18:09.522Z,19.17
2022-09-27T08:20:36.772Z,19.38
2022-09-27T08:23:04.498Z,28.38
2022-09-27T08:25:32.310Z,21.02
2022-09-27T08:28:01.876Z,27.88
2022-09-27T08:30:31.361Z,28.15
2022-09-27T08:33:00.023Z,25.52
2022-09-27T08:35:29.057Z,23.83
2022-09-27T08:37:59.166Z,21.95
2022-09-27T08:40:42.735Z,13.13
2022-09-27T08:43:39.546Z,15.00
2022-09-27T08:46:42.780Z,18.55
2022-09-27T08:49:21.177Z,8.15
2022-09-27T08:51:52.591Z,11.63
2022-09-27T08:54:26.294Z,9.93
2022-09-27T08:56:55.111Z,6.30
2022-09-27T08:59:27.515Z,20.25
2022-09-27T09:01:55.186Z,15.73
2022-09-27T09:04:39.447Z,21.23
2022-09-27T09:07:46.575Z,11.25
2022-09-27T09:10:52.488Z,12.32
2022-09-27T09:13:47.085Z,12.85
2022-09-27T09:16:53.122Z,10.00
2022-09-27T09:19:53.505Z,16.05
2022-09-27T09:22:59.615Z,11.82
2022-09-27T09:25:40.346Z,18.58
2022-09-27T09:28:38.175Z,8.00
2022-09-27T09:31:19.157Z,5.15
2022-09-27T09:34:15.663Z,10.40
2022-09-27T09:36:47.848Z,5.72
2022-09-27T09:39:29.299Z,11.65
2022-09-27T09:42:23.059Z,6.57
2022-09-27T09:45:05.717Z,7.20
2022-09-27T09:47:48.438Z,7.03
2022-09-27T09:50:27.712Z,7.40
2022-09-27T09:53:02.010Z,8.97
2022-09-27T09:55:33.291Z,7.68
2022-09-27T09:58:19.909Z,15.82
2022-09-27T10:00:50.833Z,10.55
2022-09-27T10:03:18.018Z,5.32
2022-09-27T10:05:45.844Z,3.80
2022-09-27T10:08:24.446Z,9.48
2022-09-27T10:10:51.643Z,24.33
2022-09-27T10:13:22.386Z,7.82
2022-09-27T10:16:10.929Z,5.20
2022-09-27T10:18:44.090Z,7.78
2022-09-27T10:21:26.135Z,5.82
2022-09-27T10:24:18.220Z,5.75
2022-09-27T10:26:48.784Z,6.95
2022-09-27T10:29:38.139Z,4.97
2022-09-27T10:32:19.253Z,5.60
2022-09-27T10:34:46.846Z,7.25
2022-09-27T10:37:18.503Z,3.05
2022-09-27T10:39:47.809Z,4.60
2022-09-27T10:42:36.144Z,5.10
2022-09-27T10:45:28.583Z,5.25
2022-09-27T10:47:56.672Z,8.93
2022-09-27T10:50:49.655Z,10.95
2022-09-27T10:53:20.854Z,3.40
2022-09-27T10:55:52.260Z,4.22
2022-09-27T10:58:31.337Z,7.78
2022-09-27T11:01:07.725Z,5.53
2022-09-27T11:03:39.759Z,3.05
2022-09-27T11:06:32.869Z,6.82
2022-09-27T11:09:16.713Z,3.75
2022-09-27T11:11:45.354Z,17.30
2022-09-27T11:14:22.111Z,12.93
2022-09-27T11:17:08.343Z,8.55
2022-09-27T11:20:05.957Z,17.58
2022-09-27T11:23:00.695Z,11.10
2022-09-27T11:25:43.310Z,7.07
2022-09-27T11:28:50.881Z,5.93
2022-09-27T11:31:48.279Z,4.95
2022-09-27T11:34:47.567Z,13.52
2022-09-27T11:37:47.445Z,12.37
2022-09-27T11:40:44.967Z,3.97
2022-09-27T11:43:38.759Z,6.55
2022-09-27T11:46:40.256Z,4.63
2022-09-27T11:49:36.415Z,7.13
2022-09-27T11:52:42.988Z,3.25
2022-09-27T11:55:31.241Z,4.05
2022-09-27T11:58:28.761Z,6.32
2022-09-27T12:01:25.914Z,11.02
2022-09-27T12:04:15.181Z,16.92
2022-09-27T12:07:09.063Z,4.15
2022-09-27T12:09:45.524Z,19.83
2022-09-27T12:12:22.050Z,6.15
2022-09-27T12:15:22.161Z,5.03
2022-09-27T12:20:25.434Z,5.97
2022-09-27T12:23:11.409Z,5.93
2022-09-27T12:25:42.117Z,7.13
2022-09-27T12:28:41.118Z,4.70
2022-09-27T12:31:30.070Z,7.45
2022-09-27T12:34:20.505Z,6.28
2022-09-27T12:37:17.047Z,5.82
2022-09-27T12:39:55.860Z,4.05
2022-09-27T12:42:33.674Z,4.05
2022-09-27T12:45:00.727Z,5.28
2022-09-27T12:47:53.627Z,3.03
2022-09-27T12:50:44.676Z,1.80
2022-09-27T12:53:23.481Z,4.75
2022-09-27T12:56:29.848Z,2.83
2022-09-27T12:59:30.524Z,4.18
2022-09-27T13:02:34.023Z,1.15
2022-09-27T13:05:29.377Z,3.40
2022-09-27T13:08:34.464Z,3.90
2022-09-27T13:11:36.909Z,14.05
2022-09-27T13:14:05.717Z,2.20
2022-09-27T13:16:43.895Z,6.18
2022-09-27T13:19:43.638Z,2.60
2022-09-27T13:22:38.414Z,2.78
2022-09-27T13:25:45.797Z,7.25
2022-09-27T13:28:55.008Z,4.65
2022-09-27T13:32:01.888Z,1.73
2022-09-27T13:34:42.683Z,9.18
2022-09-27T13:37:45.837Z,4.45
2022-09-27T13:40:27.757Z,2.17
2022-09-27T13:43:27.062Z,1.52
2022-09-27T13:45:58.768Z,4.27
2022-09-27T13:48:43.799Z,4.60
2022-09-27T13:51:35.825Z,1.50
2022-09-27T13:54:26.921Z,8.07
2022-09-27T13:56:56.400Z,2.45
2022-09-27T13:59:37.424Z,5.88
2022-09-27T14:02:36.578Z,2.42
2022-09-27T14:05:04.839Z,6.68
2022-09-27T14:07:40.907Z,5.03
2022-09-27T14:10:14.703Z,4.55
2022-09-27T14:12:43.432Z,3.35
2022-09-27T14:15:19.539Z,8.30
2022-09-27T14:17:46.908Z,15.45
2022-09-27T14:20:42.314Z,3.72
2022-09-27T14:23:21.936Z,7.80
2022-09-27T14:25:51.761Z,11.93
2022-09-27T14:28:29.284Z,4.75
2022-09-27T14:31:15.003Z,7.85
2022-09-27T14:33:42.141Z,8.60
2022-09-27T14:36:46.365Z,8.18
2022-09-27T14:39:20.760Z,2.25
2022-09-27T14:41:48.174Z,5.78
2022-09-27T14:44:24.703Z,8.75
2022-09-27T14:47:18.950Z,11.00
2022-09-27T14:49:53.286Z,5.80
2022-09-27T14:52:31.498Z,9.32
2022-09-27T14:55:06.482Z,7.72
2022-09-27T14:57:35.396Z,6.57
2022-09-27T15:00:17.223Z,6.25
2022-09-27T15:02:44.952Z,10.05
2022-09-27T15:05:16.865Z,8.15
2022-09-27T15:07:46.787Z,11.27
2022-09-27T15:10:17.360Z,4.35
2022-09-27T15:12:48.221Z,10.55
2022-09-27T15:15:27.863Z,15.73
2022-09-27T15:17:54.907Z,10.98
2022-09-27T15:20:31.048Z,16.10
2022-09-27T15:23:04.144Z,11.27
2022-09-27T15:25:42.477Z,14.30
2022-09-27T15:28:19.663Z,7.68
2022-09-27T15:30:56.167Z,21.15
2022-09-27T15:33:31.413Z,7.93
2022-09-27T15:36:03.631Z,20.25
2022-09-27T15:38:36.488Z,15.57
2022-09-27T15:41:16.375Z,9.98
2022-09-27T15:43:52.686Z,12.80
2022-09-27T15:46:33.470Z,15.73
2022-09-27T15:49:26.700Z,18.83
2022-09-27T15:51:55.909Z,9.00
2022-09-27T15:54:25.503Z,24.38
2022-09-27T15:56:56.231Z,12.55
2022-09-27T15:59:28.211Z,19.95
2022-09-27T16:02:16.384Z,16.02
2022-09-27T16:04:43.627Z,25.02
2022-09-27T16:07:10.869Z,16.23
2022-09-27T16:09:38.260Z,24.88
2022-09-27T16:12:05.854Z,19.80
2022-09-27T16:14:32.894Z,8.25
2022-09-27T16:17:00.264Z,11.13
2022-09-27T16:19:27.368Z,12.02
2022-09-27T16:21:54.360Z,11.05
2022-09-27T16:24:21.735Z,7.25
2022-09-27T16:26:48.788Z,8.30
2022-09-27T16:29:16.969Z,11.25
2022-09-27T16:31:44.445Z,10.15
2022-09-27T16:34:12.660Z,13.45
2022-09-27T16:36:40.988Z,12.15
2022-09-27T16:39:11.720Z,16.17
2022-09-27T16:41:43.931Z,4.88
2022-09-27T16:44:14.048Z,13.15
2022-09-27T16:46:42.542Z,10.77
2022-09-27T16:49:29.953Z,10.75
2022-09-27T16:52:00.558Z,10.02
2022-09-27T16:54:31.063Z,9.77
2022-09-27T16:56:59.630Z,5.55
2022-09-27T16:59:27.674Z,8.32
2022-09-27T17:01:58.714Z,6.93
2022-09-27T17:04:27.735Z,13.73
2022-09-27T17:06:56.359Z,12.20
2022-09-27T17:09:23.759Z,7.80
2022-09-27T17:11:51.043Z,3.30
2022-09-27T17:14:18.868Z,7.10
2022-09-27T17:16:47.208Z,5.13
2022-09-27T17:19:15.223Z,6.65
2022-09-27T17:21:43.654Z,7.85
2022-09-27T17:24:10.948Z,4.40
2022-09-27T17:26:38.395Z,6.45
2022-09-27T17:29:05.884Z,5.28
2022-09-27T17:31:35.175Z,2.65
2022-09-27T17:34:03.119Z,7.90
2022-09-27T17:36:33.700Z,6.78
2022-09-27T17:39:01.099Z,5.50
2022-09-27T17:41:29.717Z,5.75
2022-09-27T17:43:59.405Z,6.72
2022-09-27T17:46:29.181Z,5.30
2022-09-27T17:49:16.808Z,6.47
2022-09-27T17:51:47.785Z,3.30
2022-09-27T17:54:15.717Z,4.07
2022-09-27T17:56:43.728Z,4.03
2022-09-27T17:59:12.214Z,5.63
2022-09-27T18:01:40.178Z,2.70
2022-09-27T18:04:10.098Z,2.42
2022-09-27T18:06:42.107Z,4.28
2022-09-27T18:09:11.128Z,8.32
2022-09-27T18:11:39.430Z,5.85
2022-09-27T18:14:07.377Z,2.70
2022-09-27T18:16:39.315Z,3.47
2022-09-27T18:19:08.367Z,3.30
2022-09-27T18:21:35.640Z,7.78
2022-09-27T18:24:06.452Z,3.03
2022-09-27T18:26:38.974Z,5.60
2022-09-27T18:29:09.908Z,10.50
2022-09-27T18:31:37.008Z,1.98
2022-09-27T18:34:04.469Z,5.18
2022-09-27T18:36:31.576Z,4.95
2022-09-27T18:39:00.725Z,2.20
2022-09-27T18:41:29.822Z,3.50
2022-09-27T18:43:59.901Z,3.13
2022-09-27T18:46:37.306Z,3.58
2022-09-27T18:49:06.962Z,2.80
2022-09-27T18:51:37.593Z,5.10
2022-09-27T18:54:09.625Z,2.00
2022-09-27T18:56:39.598Z,6.75
2022-09-27T18:59:08.726Z,2.25
2022-09-27T19:01:41.744Z,2.38
2022-09-27T19:04:09.976Z,2.72
2022-09-27T19:06:38.767Z,1.90
2022-09-27T19:09:07.084Z,4.70
2022-09-27T19:11:34.463Z,1.40
2022-09-27T19:14:02.194Z,3.38
2022-09-27T19:16:30.043Z,2.85
2022-09-27T19:18:57.357Z,1.95
2022-09-27T19:21:27.190Z,1.85
2022-09-27T19:23:54.622Z,5.50
2022-09-27T19:26:24.684Z,1.50
2022-09-27T19:28:52.429Z,4.57
2022-09-27T19:31:22.148Z,2.58
2022-09-27T19:33:49.564Z,1.20
2022-09-27T19:36:18.268Z,1.65
2022-09-27T19:38:46.330Z,3.30
2022-09-27T19:41:15.327Z,3.72
2022-09-27T19:43:45.375Z,2.05
2022-09-27T19:46:17.474Z,3.72
2022-09-27T19:48:45.854Z,2.20
2022-09-27T19:51:18.079Z,4.85
2022-09-27T19:53:45.479Z,2.25
2022-09-27T19:56:13.645Z,2.78
2022-09-27T19:58:42.295Z,4.22
2022-09-27T20:01:19.259Z,2.53
2022-09-27T20:03:47.614Z,1.58
2022-09-27T20:06:17.469Z,3.40
2022-09-27T20:08:44.976Z,2.53
2022-09-27T20:11:14.867Z,1.95
2022-09-27T20:13:42.532Z,1.27
2022-09-27T20:16:23.524Z,3.45
2022-09-27T20:18:52.669Z,1.00
2022-09-27T20:21:21.189Z,1.08
2022-09-27T20:23:53.688Z,2.10
2022-09-27T20:26:22.708Z,1.50
2022-09-27T20:28:53.580Z,2.97
2022-09-27T20:31:24.334Z,1.27
2022-09-27T20:33:51.796Z,1.52
2022-09-27T20:36:24.969Z,1.38
2022-09-27T20:38:58.218Z,2.60
2022-09-27T20:41:30.627Z,3.15
2022-09-27T20:44:06.311Z,3.67
2022-09-27T20:46:34.379Z,1.63
2022-09-27T20:49:04.314Z,1.45
2022-09-27T20:51:33.382Z,1.55
2022-09-27T20:54:01.851Z,1.67
2022-09-27T20:56:34.705Z,1.80
2022-09-27T20:59:05.396Z,4.88
2022-09-27T21:01:33.425Z,1.40
2022-09-27T21:04:05.338Z,1.20
2022-09-27T21:06:33.215Z,6.00
2022-09-27T21:09:03.627Z,0.88
2022-09-27T21:11:30.623Z,2.30
2022-09-27T21:13:57.705Z,2.65
2022-09-27T21:16:27.787Z,2.35
2022-09-27T21:18:56.917Z,1.35
2022-09-27T21:21:25.542Z,4.05
2022-09-27T21:23:58.427Z,1.70
2022-09-27T21:26:29.788Z,1.40
2022-09-27T21:28:59.431Z,1.38
2022-09-27T21:31:34.860Z,2.33
2022-09-27T21:34:04.139Z,1.92
2022-09-27T21:36:34.076Z,3.33
2022-09-27T21:39:04.675Z,1.23
2022-09-27T21:41:31.773Z,1.90
2022-09-27T21:43:58.835Z,1.50
2022-09-27T21:46:28.453Z,5.90
2022-09-27T21:48:57.980Z,3.13
2022-09-27T21:51:27.717Z,1.73
2022-09-27T21:53:57.369Z,1.95
2022-09-27T21:56:26.682Z,1.85
2022-09-27T21:58:53.909Z,2.45
2022-09-27T22:01:23.470Z,2.28
2022-09-27T22:03:52.151Z,2.00
2022-09-27T22:06:21.799Z,2.72
2022-09-27T22:08:50.149Z,1.40
2022-09-27T22:11:20.959Z,1.88
2022-09-27T22:13:48.199Z,2.05
2022-09-27T22:16:17.367Z,1.50
2022-09-27T22:18:46.294Z,1.10
2022-09-27T22:21:20.186Z,2.63
2022-09-27T22:23:47.424Z,1.50
2022-09-27T22:26:24.231Z,1.15
2022-09-27T22:28:52.376Z,1.13
2022-09-27T22:31:20.730Z,1.92
2022-09-27T22:33:57.096Z,1.77
2022-09-27T22:36:24.547Z,2.03
2022-09-27T22:38:52.182Z,1.52
2022-09-27T22:41:20.380Z,1.45
2022-09-27T22:43:47.792Z,1.10
2022-09-27T22:46:15.256Z,2.05
2022-09-27T22:48:42.936Z,1.38
2022-09-27T22:51:10.465Z,2.60
2022-09-27T22:53:38.297Z,1.20
2022-09-27T22:56:15.836Z,1.88
2022-09-27T22:58:44.206Z,1.90
2022-09-27T23:01:16.727Z,1.50
2022-09-27T23:03:44.316Z,1.20
2022-09-27T23:06:12.267Z,1.13
2022-09-27T23:08:39.728Z,1.13
2022-09-27T23:11:09.770Z,3.47
2022-09-27T23:13:39.061Z,0.93
2022-09-27T23:16:09.158Z,1.45
2022-09-27T23:18:37.370Z,1.15
2022-09-27T23:21:07.315Z,2.35
2022-09-27T23:23:44.981Z,1.27
2022-09-27T23:26:16.650Z,1.63
2022-09-27T23:28:44.469Z,1.17
2022-09-27T23:31:17.125Z,1.73
2022-09-27T23:33:46.480Z,1.00
2022-09-27T23:36:15.667Z,1.02
2022-09-27T23:38:45.664Z,1.05
2022-09-27T23:41:13.657Z,1.67
2022-09-27T23:43:40.850Z,1.40
2022-09-27T23:46:08.787Z,1.38
2022-09-27T23:48:36.547Z,1.90
2022-09-27T23:51:05.737Z,1.13
2022-09-27T23:53:32.959Z,1.00
2022-09-27T23:56:05.383Z,1.65
2022-09-27T23:58:34.092Z,4.10
